Time;durP1;ratioP1;P1;durP2;ratioP2;P2;SDS_P1;SDS_P2;PMS_P1;PMS_P2;Temp;Humidity;BMP_temperature;BMP_pressure;BME280_temperature;BME280_humidity;BME280_pressure;Samples;Min_cycle;Max_cycle;Signal;HPM_P1;HPM_P2
2021/12/19 00:10:21;;;;;;;25.90;13.63;;;;;;;;;;5065501;28;20196;-91
2021/12/19 00:12:48;;;;;;;25.03;13.13;;;;;;;;;;5071274;28;20209;-91
2021/12/19 00:15:15;;;;;;;28.40;14.47;;;;;;;;;;5074858;28;20723;-91
2021/12/19 00:17:43;;;;;;;23.13;12.30;;;;;;;;;;5071751;28;20332;-90
2021/12/19 00:20:12;;;;;;;26.80;13.30;;;;;;;;;;5074016;28;20224;-90
2021/12/19 00:22:39;;;;;;;26.90;13.77;;;;;;;;;;5066920;28;20236;-90
2021/12/19 00:25:07;;;;;;;24.57;14.07;;;;;;;;;;5066811;28;20201;-91
2021/12/19 00:27:34;;;;;;;27.13;13.57;;;;;;;;;;5066597;28;20217;-91
2021/12/19 00:30:02;;;;;;;26.60;12.97;;;;;;;;;;5074239;28;20205;-91
2021/12/19 00:32:29;;;;;;;29.13;13.27;;;;;;;;;;5074675;28;20270;-91
2021/12/19 00:34:56;;;;;;;32.00;15.17;;;;;;;;;;5067250;28;20272;-91
2021/12/19 00:37:25;;;;;;;30.53;14.20;;;;;;;;;;5074010;28;20646;-91
2021/12/19 00:39:52;;;;;;;30.27;14.77;;;;;;;;;;5074098;28;20209;-91
2021/12/19 00:42:30;;;;;;;28.23;15.27;;;;;;;;;;5072275;28;20358;-91
2021/12/19 00:45:01;;;;;;;28.60;15.23;;;;;;;;;;5071813;28;20258;-91
2021/12/19 00:47:28;;;;;;;28.00;14.10;;;;;;;;;;5071746;28;20225;-91
2021/12/19 00:49:56;;;;;;;31.13;15.80;;;;;;;;;;5072970;28;20217;-90
2021/12/19 00:52:24;;;;;;;30.70;15.63;;;;;;;;;;5073910;28;20594;-90
2021/12/19 00:54:52;;;;;;;31.40;15.07;;;;;;;;;;5074323;28;20217;-90
2021/12/19 00:57:20;;;;;;;28.77;13.53;;;;;;;;;;5069015;28;20638;-90
2021/12/19 00:59:47;;;;;;;34.33;15.27;;;;;;;;;;5066631;28;20201;-91
2021/12/19 01:02:14;;;;;;;31.50;14.53;;;;;;;;;;5074288;28;20275;-90
2021/12/19 01:04:41;;;;;;;32.50;14.57;;;;;;;;;;5065669;28;20259;-91
2021/12/19 01:07:09;;;;;;;27.17;13.80;;;;;;;;;;5056368;28;20251;-91
2021/12/19 01:09:36;;;;;;;31.53;15.77;;;;;;;;;;5073808;28;20217;-91
2021/12/19 01:12:09;;;;;;;32.97;14.43;;;;;;;;;;5073599;28;20645;-90
2021/12/19 01:14:37;;;;;;;30.77;15.13;;;;;;;;;;5074054;28;20201;-91
2021/12/19 01:17:05;;;;;;;31.00;14.87;;;;;;;;;;5072532;28;20551;-91
2021/12/19 01:19:32;;;;;;;27.40;13.00;;;;;;;;;;5068107;28;20198;-90
2021/12/19 01:21:59;;;;;;;33.17;16.63;;;;;;;;;;5073651;28;20751;-91
2021/12/19 01:24:27;;;;;;;27.50;14.47;;;;;;;;;;5071637;28;20206;-90
2021/12/19 01:26:54;;;;;;;31.33;14.73;;;;;;;;;;5069113;28;20209;-91
2021/12/19 01:29:23;;;;;;;30.10;14.67;;;;;;;;;;5073259;28;20221;-90
2021/12/19 01:31:50;;;;;;;32.37;14.73;;;;;;;;;;5073649;28;20233;-91
2021/12/19 01:34:17;;;;;;;34.53;14.30;;;;;;;;;;5069051;28;20255;-90
2021/12/19 01:36:45;;;;;;;31.00;14.37;;;;;;;;;;5072889;28;20254;-91
2021/12/19 01:39:14;;;;;;;26.90;11.90;;;;;;;;;;5073450;28;20197;-91
2021/12/19 01:41:47;;;;;;;28.17;13.43;;;;;;;;;;5070270;28;20312;-90
2021/12/19 01:44:15;;;;;;;33.83;13.00;;;;;;;;;;5065275;28;20255;-91
2021/12/19 01:46:44;;;;;;;27.63;13.47;;;;;;;;;;5072999;28;20279;-90
2021/12/19 01:49:12;;;;;;;24.43;11.53;;;;;;;;;;5069548;28;20224;-91
2021/12/19 01:51:39;;;;;;;28.60;13.20;;;;;;;;;;5069094;28;20689;-91
2021/12/19 01:54:07;;;;;;;29.53;13.47;;;;;;;;;;5072687;28;20213;-91
2021/12/19 01:56:34;;;;;;;27.13;12.00;;;;;;;;;;5072739;28;20209;-90
2021/12/19 01:59:01;;;;;;;34.13;14.43;;;;;;;;;;5067734;28;20259;-91
2021/12/19 02:01:29;;;;;;;30.67;13.83;;;;;;;;;;5063074;28;20225;-91
2021/12/19 02:03:58;;;;;;;26.93;11.53;;;;;;;;;;5069805;28;20255;-91
2021/12/19 02:06:25;;;;;;;25.33;11.83;;;;;;;;;;5072822;28;20206;-91
2021/12/19 02:08:55;;;;;;;31.67;14.03;;;;;;;;;;5072933;28;20224;-91
2021/12/19 02:11:22;;;;;;;35.23;14.93;;;;;;;;;;5070297;28;20240;-90
2021/12/19 02:13:49;;;;;;;27.97;14.13;;;;;;;;;;5072436;28;20197;-91
2021/12/19 02:16:18;;;;;;;39.13;15.77;;;;;;;;;;5072947;28;20212;-90
2021/12/19 02:18:46;;;;;;;31.60;15.30;;;;;;;;;;5071397;28;20207;-91
2021/12/19 02:21:16;;;;;;;29.03;14.20;;;;;;;;;;5072466;28;20787;-90
2021/12/19 02:23:43;;;;;;;36.30;15.07;;;;;;;;;;5068782;28;20608;-91
2021/12/19 02:26:10;;;;;;;35.37;15.80;;;;;;;;;;5058188;28;20212;-91
2021/12/19 02:28:38;;;;;;;33.60;14.87;;;;;;;;;;5067971;28;20228;-91
2021/12/19 02:31:05;;;;;;;35.67;15.50;;;;;;;;;;5072395;28;20775;-91
2021/12/19 02:33:36;;;;;;;36.87;16.33;;;;;;;;;;5071154;28;20205;-91
2021/12/19 02:36:19;;;;;;;35.73;16.77;;;;;;;;;;5071563;28;20292;-91
2021/12/19 02:49:55;;;;;;;31.37;14.30;;;;;;;;;;5035862;28;20570;-90
2021/12/19 02:52:22;;;;;;;31.43;15.63;;;;;;;;;;5066033;28;20639;-90
2021/12/19 02:54:51;;;;;;;34.90;16.33;;;;;;;;;;5071886;28;20225;-91
2021/12/19 02:57:18;;;;;;;32.83;14.60;;;;;;;;;;5072341;28;20269;-90
2021/12/19 02:59:46;;;;;;;31.17;14.90;;;;;;;;;;5072633;28;20259;-91
2021/12/19 03:02:13;;;;;;;31.53;15.93;;;;;;;;;;5068609;28;20287;-91
2021/12/19 03:04:52;;;;;;;34.23;13.07;;;;;;;;;;5067223;28;20198;-91
2021/12/19 03:07:20;;;;;;;33.47;14.57;;;;;;;;;;5052022;28;20264;-91
2021/12/19 03:10:11;;;;;;;37.40;16.50;;;;;;;;;;5059750;28;20221;-92
2021/12/19 03:12:50;;;;;;;38.17;17.10;;;;;;;;;;5071154;28;20221;-91
2021/12/19 03:18:06;;;;;;;32.03;16.20;;;;;;;;;;5064128;28;20267;-93
2021/12/19 03:20:34;;;;;;;38.37;17.07;;;;;;;;;;5066013;28;20221;-91
2021/12/19 03:23:02;;;;;;;34.27;16.77;;;;;;;;;;5068288;28;20205;-90
2021/12/19 03:25:30;;;;;;;33.93;16.17;;;;;;;;;;5071855;28;20209;-90
2021/12/19 03:27:59;;;;;;;36.63;16.83;;;;;;;;;;5075535;28;20202;-90
2021/12/19 03:30:26;;;;;;;32.80;15.40;;;;;;;;;;5070390;28;20543;-91
2021/12/19 03:32:54;;;;;;;33.63;17.00;;;;;;;;;;5069194;28;20205;-90
2021/12/19 03:35:23;;;;;;;33.20;15.77;;;;;;;;;;5075725;28;20600;-90
2021/12/19 03:37:51;;;;;;;32.37;15.87;;;;;;;;;;5072930;28;20258;-90
2021/12/19 03:40:22;;;;;;;29.70;15.87;;;;;;;;;;5075441;28;20682;-91
2021/12/19 03:42:50;;;;;;;31.07;16.03;;;;;;;;;;5075685;28;20197;-91
2021/12/19 03:45:20;;;;;;;33.90;16.90;;;;;;;;;;5075546;28;20258;-90
2021/12/19 03:47:48;;;;;;;32.67;16.13;;;;;;;;;;5070431;28;20221;-91
2021/12/19 03:50:18;;;;;;;37.53;16.97;;;;;;;;;;5070427;28;20201;-91
2021/12/19 03:52:46;;;;;;;36.30;15.93;;;;;;;;;;5070996;28;20728;-91
2021/12/19 03:55:13;;;;;;;29.80;14.87;;;;;;;;;;5067404;28;20538;-91
2021/12/19 03:57:40;;;;;;;32.60;16.37;;;;;;;;;;5075079;28;20205;-91
2021/12/19 04:00:10;;;;;;;32.53;16.10;;;;;;;;;;5073558;28;20248;-90
2021/12/19 04:02:38;;;;;;;36.57;16.90;;;;;;;;;;5075250;28;20217;-90
2021/12/19 04:05:06;;;;;;;30.63;15.77;;;;;;;;;;5075154;28;20255;-90
2021/12/19 04:07:33;;;;;;;31.87;14.10;;;;;;;;;;5074034;28;20244;-91
2021/12/19 04:10:00;;;;;;;32.40;14.53;;;;;;;;;;5074696;28;20248;-90
2021/12/19 04:12:29;;;;;;;25.93;14.10;;;;;;;;;;5074761;28;20225;-91
2021/12/19 04:14:57;;;;;;;29.70;15.37;;;;;;;;;;5074899;28;20209;-91
2021/12/19 04:17:24;;;;;;;31.30;14.93;;;;;;;;;;5068335;28;20209;-91
2021/12/19 04:19:52;;;;;;;29.43;14.70;;;;;;;;;;5074718;28;20276;-91
2021/12/19 04:22:20;;;;;;;33.47;15.97;;;;;;;;;;5074654;28;20279;-89
2021/12/19 04:24:47;;;;;;;31.17;15.07;;;;;;;;;;5075003;28;20621;-89
2021/12/19 04:27:14;;;;;;;29.33;14.30;;;;;;;;;;5066902;28;20251;-89
2021/12/19 04:29:42;;;;;;;29.40;14.73;;;;;;;;;;5074340;28;20225;-89
2021/12/19 04:32:11;;;;;;;33.93;16.00;;;;;;;;;;5074308;28;20586;-89
2021/12/19 04:34:38;;;;;;;24.97;13.33;;;;;;;;;;5073312;28;20205;-89
2021/12/19 04:37:21;;;;;;;29.47;13.43;;;;;;;;;;5066158;28;20205;-90
2021/12/19 04:39:55;;;;;;;31.53;14.40;;;;;;;;;;5074428;28;20288;-89
2021/12/19 04:51:13;;;;;;;26.63;13.53;;;;;;;;;;5074058;28;20642;-89
2021/12/19 04:53:56;;;;;;;24.57;12.57;;;;;;;;;;5069763;28;20243;-89
2021/12/19 04:56:38;;;;;;;27.17;12.70;;;;;;;;;;5074074;28;20664;-89
2021/12/19 05:02:10;;;;;;;24.63;13.07;;;;;;;;;;5073271;28;20220;-89
2021/12/19 05:05:05;;;;;;;24.80;13.07;;;;;;;;;;5073880;28;20259;-89
2021/12/19 05:15:49;;;;;;;22.37;12.50;;;;;;;;;;5073593;28;20652;-89
2021/12/19 05:18:17;;;;;;;27.87;13.10;;;;;;;;;;5071239;28;20258;-89
2021/12/19 05:20:52;;;;;;;23.67;11.97;;;;;;;;;;5071670;28;20308;-90
2021/12/19 05:23:25;;;;;;;20.67;11.17;;;;;;;;;;5073600;28;20205;-89
2021/12/19 05:25:54;;;;;;;19.17;10.40;;;;;;;;;;5072817;28;20262;-90
2021/12/19 05:28:21;;;;;;;19.90;10.20;;;;;;;;;;5072947;28;20604;-89
2021/12/19 05:30:49;;;;;;;20.33;9.47;;;;;;;;;;5060310;28;20702;-89
2021/12/19 05:33:16;;;;;;;19.67;10.47;;;;;;;;;;5066428;28;20268;-89
2021/12/19 05:46:58;;;;;;;20.43;10.47;;;;;;;;;;5068979;28;20198;-89
2021/12/19 05:49:26;;;;;;;23.40;10.97;;;;;;;;;;5072841;28;20213;-89
2021/12/19 05:51:53;;;;;;;19.70;9.53;;;;;;;;;;5073199;28;20290;-90
2021/12/19 05:54:21;;;;;;;18.87;9.63;;;;;;;;;;5070070;28;20650;-89
2021/12/19 05:56:51;;;;;;;20.90;10.50;;;;;;;;;;5071221;28;20278;-89
2021/12/19 05:59:18;;;;;;;20.70;10.50;;;;;;;;;;5072759;28;20251;-89
2021/12/19 06:01:46;;;;;;;25.13;11.57;;;;;;;;;;5072730;28;20221;-89
2021/12/19 06:04:14;;;;;;;20.53;9.93;;;;;;;;;;5068806;28;20665;-89
2021/12/19 06:06:41;;;;;;;21.50;10.53;;;;;;;;;;5072436;28;20729;-89
2021/12/19 06:09:08;;;;;;;19.67;10.53;;;;;;;;;;5072619;28;20217;-89
2021/12/19 06:11:36;;;;;;;22.03;11.40;;;;;;;;;;5072816;28;20278;-89
2021/12/19 06:14:04;;;;;;;21.97;10.97;;;;;;;;;;5069552;28;20620;-89
2021/12/19 06:16:32;;;;;;;22.80;11.23;;;;;;;;;;5072371;28;20209;-89
2021/12/19 06:18:59;;;;;;;21.83;10.83;;;;;;;;;;5072650;28;20204;-89
2021/12/19 06:21:26;;;;;;;19.00;9.23;;;;;;;;;;5072808;28;20359;-89
2021/12/19 06:23:54;;;;;;;19.37;9.77;;;;;;;;;;5065510;28;20254;-89
2021/12/19 06:26:21;;;;;;;19.00;9.90;;;;;;;;;;5066834;28;20698;-90
2021/12/19 06:28:48;;;;;;;17.07;9.07;;;;;;;;;;5072435;28;20209;-89
2021/12/19 06:31:19;;;;;;;19.47;9.67;;;;;;;;;;5069681;28;20290;-90
2021/12/19 06:33:46;;;;;;;18.97;9.53;;;;;;;;;;5068556;28;20206;-90
2021/12/19 06:36:13;;;;;;;22.80;10.03;;;;;;;;;;5072611;28;20704;-89
2021/12/19 06:38:41;;;;;;;21.90;9.87;;;;;;;;;;5072596;28;20546;-89
2021/12/19 06:41:08;;;;;;;18.77;9.63;;;;;;;;;;5068234;28;20221;-89
2021/12/19 06:43:35;;;;;;;18.40;9.37;;;;;;;;;;5066596;28;20259;-89
2021/12/19 06:46:03;;;;;;;22.53;10.67;;;;;;;;;;5072197;28;20252;-89
2021/12/19 06:48:31;;;;;;;17.53;9.87;;;;;;;;;;5071817;28;20213;-89
2021/12/19 06:50:59;;;;;;;19.50;10.33;;;;;;;;;;5069819;28;20732;-89
2021/12/19 06:53:26;;;;;;;19.30;10.03;;;;;;;;;;5072309;28;20288;-89
2021/12/19 06:55:53;;;;;;;19.37;9.90;;;;;;;;;;5072488;28;20732;-89
2021/12/19 06:58:21;;;;;;;16.33;9.53;;;;;;;;;;5074931;28;20208;-91
2021/12/19 07:00:49;;;;;;;20.67;9.47;;;;;;;;;;5073302;28;20496;-90
2021/12/19 07:03:16;;;;;;;17.93;8.50;;;;;;;;;;5076299;28;20232;-89
2021/12/19 07:05:45;;;;;;;17.93;9.13;;;;;;;;;;5076696;28;20584;-89
2021/12/19 07:08:12;;;;;;;16.83;8.40;;;;;;;;;;5073150;28;20208;-89
2021/12/19 07:10:39;;;;;;;16.67;8.90;;;;;;;;;;5064239;28;20244;-90
2021/12/19 07:13:07;;;;;;;15.57;7.57;;;;;;;;;;5076704;28;20221;-90
2021/12/19 07:15:34;;;;;;;17.17;8.57;;;;;;;;;;5076336;28;20262;-89
2021/12/19 07:18:06;;;;;;;19.37;9.70;;;;;;;;;;5072562;28;20205;-90
2021/12/19 07:20:33;;;;;;;17.83;8.80;;;;;;;;;;5076088;28;20190;-91
2021/12/19 07:23:02;;;;;;;19.43;9.27;;;;;;;;;;5075711;28;20201;-90
2021/12/19 07:25:29;;;;;;;16.80;8.53;;;;;;;;;;5061448;28;20221;-90
2021/12/19 07:27:56;;;;;;;22.67;10.93;;;;;;;;;;5073977;28;20236;-90
2021/12/19 07:30:25;;;;;;;22.47;11.07;;;;;;;;;;5075782;28;20270;-90
2021/12/19 07:32:54;;;;;;;19.90;10.43;;;;;;;;;;5075180;28;20296;-90
2021/12/19 07:35:21;;;;;;;22.27;11.40;;;;;;;;;;5075372;28;20705;-90
2021/12/19 07:37:50;;;;;;;22.40;10.80;;;;;;;;;;5075191;28;20205;-90
2021/12/19 07:40:20;;;;;;;19.90;10.43;;;;;;;;;;5075766;28;20547;-91
2021/12/19 07:42:48;;;;;;;24.57;11.40;;;;;;;;;;5068753;28;20684;-90
2021/12/19 07:45:16;;;;;;;27.70;12.03;;;;;;;;;;5073556;28;20254;-90
2021/12/19 07:47:44;;;;;;;21.63;11.00;;;;;;;;;;5075584;28;20205;-90
2021/12/19 07:50:12;;;;;;;24.13;10.87;;;;;;;;;;5075063;28;20631;-90
2021/12/19 07:52:40;;;;;;;19.83;9.93;;;;;;;;;;5074351;28;20282;-90
2021/12/19 07:55:08;;;;;;;19.03;9.70;;;;;;;;;;5074642;28;20270;-90
2021/12/19 07:57:51;;;;;;;19.03;10.53;;;;;;;;;;5075033;28;20197;-91
2021/12/19 08:00:20;;;;;;;18.63;9.17;;;;;;;;;;5075366;28;20217;-90
2021/12/19 08:02:48;;;;;;;15.27;8.70;;;;;;;;;;5074200;28;20251;-91
2021/12/19 08:05:15;;;;;;;22.20;9.97;;;;;;;;;;5074758;28;20719;-90
2021/12/19 08:07:46;;;;;;;20.07;9.03;;;;;;;;;;5074900;28;20228;-93
2021/12/19 08:11:39;;;;;;;19.60;9.33;;;;;;;;;;5073228;28;20241;-90
2021/12/19 08:13:01;;;;;;;16.97;8.53;;;;;;;;;;5079152;28;20216;-91
2021/12/19 08:15:29;;;;;;;16.63;8.40;;;;;;;;;;5075151;28;20225;-91
2021/12/19 08:17:56;;;;;;;17.07;9.27;;;;;;;;;;5068388;28;20213;-91
2021/12/19 08:20:25;;;;;;;16.87;8.33;;;;;;;;;;5068587;28;20198;-91
2021/12/19 08:22:53;;;;;;;19.57;8.83;;;;;;;;;;5075048;28;20611;-90
2021/12/19 08:25:20;;;;;;;18.20;8.90;;;;;;;;;;5067070;28;20258;-90
2021/12/19 08:27:48;;;;;;;17.60;8.07;;;;;;;;;;5073226;28;20264;-92
2021/12/19 08:30:17;;;;;;;19.27;9.03;;;;;;;;;;5074267;28;20217;-90
2021/12/19 08:32:45;;;;;;;15.57;8.63;;;;;;;;;;5074408;28;20705;-90
2021/12/19 08:35:13;;;;;;;17.00;9.20;;;;;;;;;;5073701;28;20232;-91
2021/12/19 08:37:40;;;;;;;19.17;10.13;;;;;;;;;;5074360;28;20202;-91
2021/12/19 08:40:11;;;;;;;17.37;9.07;;;;;;;;;;5074270;28;20650;-91
2021/12/19 08:42:42;;;;;;;17.13;8.97;;;;;;;;;;5074716;28;20230;-91
2021/12/19 08:45:09;;;;;;;20.90;10.33;;;;;;;;;;5073857;28;20206;-91
2021/12/19 08:47:38;;;;;;;17.33;7.87;;;;;;;;;;5074226;28;20201;-91
2021/12/19 08:50:07;;;;;;;16.63;8.07;;;;;;;;;;5074045;28;20670;-91
2021/12/19 08:52:34;;;;;;;14.83;7.13;;;;;;;;;;5074669;28;20236;-90
2021/12/19 08:55:01;;;;;;;14.93;7.33;;;;;;;;;;5073444;28;20267;-90
2021/12/19 08:57:29;;;;;;;12.07;6.83;;;;;;;;;;5070676;28;20202;-91
2021/12/19 08:59:57;;;;;;;12.90;6.60;;;;;;;;;;5074396;28;20254;-90
2021/12/19 09:02:25;;;;;;;12.53;6.80;;;;;;;;;;5073992;28;20280;-93
2021/12/19 09:04:53;;;;;;;11.07;6.40;;;;;;;;;;5073243;28;20197;-91
2021/12/19 09:07:21;;;;;;;11.47;6.60;;;;;;;;;;5066566;28;20201;-91
2021/12/19 09:09:49;;;;;;;11.43;5.83;;;;;;;;;;5073351;28;20678;-90
2021/12/19 09:12:16;;;;;;;10.13;5.90;;;;;;;;;;5071816;28;20248;-91
2021/12/19 09:14:44;;;;;;;11.37;6.40;;;;;;;;;;5073691;28;20233;-91
2021/12/19 09:17:11;;;;;;;11.47;5.97;;;;;;;;;;5073243;28;20217;-90
2021/12/19 09:19:39;;;;;;;11.73;6.70;;;;;;;;;;5068382;28;20316;-93
2021/12/19 09:22:08;;;;;;;13.10;6.10;;;;;;;;;;5057667;28;20752;-92
2021/12/19 09:24:36;;;;;;;10.43;6.23;;;;;;;;;;5068035;28;20607;-92
2021/12/19 09:27:04;;;;;;;13.67;6.40;;;;;;;;;;5073028;28;20628;-92
2021/12/19 09:29:31;;;;;;;15.57;6.67;;;;;;;;;;5068174;28;20254;-93
2021/12/19 09:31:59;;;;;;;14.47;7.07;;;;;;;;;;5071219;28;20220;-92
2021/12/19 09:34:27;;;;;;;13.93;7.27;;;;;;;;;;5073458;28;20293;-92
2021/12/19 09:36:55;;;;;;;13.37;6.87;;;;;;;;;;5058691;28;20289;-92
2021/12/19 09:39:24;;;;;;;18.27;9.43;;;;;;;;;;5059025;28;20712;-92
2021/12/19 09:41:54;;;;;;;13.30;7.80;;;;;;;;;;5067936;28;20225;-92
2021/12/19 09:44:22;;;;;;;12.80;7.03;;;;;;;;;;5073168;28;20197;-92
2021/12/19 09:46:50;;;;;;;14.13;7.40;;;;;;;;;;5069865;28;20213;-92
2021/12/19 09:49:34;;;;;;;19.53;9.40;;;;;;;;;;5063915;28;20609;-92
2021/12/19 09:52:02;;;;;;;15.47;8.27;;;;;;;;;;5073034;28;20244;-92
2021/12/19 09:54:31;;;;;;;14.10;6.90;;;;;;;;;;5065969;28;20229;-92
2021/12/19 09:56:58;;;;;;;16.83;7.57;;;;;;;;;;5054985;28;20244;-92
2021/12/19 09:59:26;;;;;;;12.93;6.60;;;;;;;;;;5068982;28;20206;-92
2021/12/19 10:01:54;;;;;;;16.37;7.17;;;;;;;;;;5066772;28;20217;-92
2021/12/19 10:04:33;;;;;;;15.27;7.20;;;;;;;;;;5066526;28;20235;-91
2021/12/19 10:07:04;;;;;;;11.63;6.07;;;;;;;;;;5072308;28;20606;-93
2021/12/19 10:09:33;;;;;;;14.80;6.37;;;;;;;;;;5063973;28;20218;-92
2021/12/19 10:12:23;;;;;;;16.47;7.70;;;;;;;;;;5063514;28;20229;-92
2021/12/19 10:14:50;;;;;;;13.50;6.30;;;;;;;;;;5072724;28;20198;-92
2021/12/19 10:17:18;;;;;;;14.73;7.57;;;;;;;;;;5070000;28;20202;-92
2021/12/19 10:19:46;;;;;;;15.33;7.20;;;;;;;;;;5061501;28;20252;-91
2021/12/19 10:22:27;;;;;;;12.70;7.23;;;;;;;;;;5064036;28;20266;-92
2021/12/19 10:24:57;;;;;;;11.23;6.53;;;;;;;;;;5053685;28;20213;-92
2021/12/19 10:27:34;;;;;;;10.57;5.73;;;;;;;;;;5066126;28;20685;-92
2021/12/19 10:30:02;;;;;;;11.00;6.00;;;;;;;;;;5072572;28;20228;-92
2021/12/19 10:32:36;;;;;;;10.03;5.70;;;;;;;;;;5071983;28;20225;-92
2021/12/19 10:35:16;;;;;;;9.77;5.60;;;;;;;;;;5063546;28;20212;-91
2021/12/19 10:37:43;;;;;;;8.07;4.60;;;;;;;;;;5067829;28;20227;-92
2021/12/19 10:40:13;;;;;;;11.73;6.53;;;;;;;;;;5058593;28;20227;-92
2021/12/19 10:43:26;;;;;;;8.00;4.00;;;;;;;;;;5070690;28;20228;-92
2021/12/19 10:45:55;;;;;;;5.97;3.53;;;;;;;;;;5017475;28;20210;-92
2021/12/19 10:48:29;;;;;;;8.03;3.67;;;;;;;;;;5064175;28;20638;-92
2021/12/19 10:50:58;;;;;;;5.70;3.50;;;;;;;;;;5072898;28;20267;-92
2021/12/19 10:53:28;;;;;;;5.03;3.43;;;;;;;;;;5074395;28;20677;-93
2021/12/19 10:56:04;;;;;;;6.73;3.63;;;;;;;;;;5074426;28;20280;-93
2021/12/19 10:58:37;;;;;;;6.10;3.67;;;;;;;;;;5071611;28;20213;-92
2021/12/19 11:01:13;;;;;;;7.27;4.50;;;;;;;;;;5186160;22;20258;-92
2021/12/19 11:03:45;;;;;;;8.63;4.70;;;;;;;;;;5073873;28;20223;-91
2021/12/19 11:06:24;;;;;;;8.23;4.77;;;;;;;;;;5071519;28;20223;-91
2021/12/19 11:09:11;;;;;;;8.20;4.27;;;;;;;;;;5068961;28;20193;-91
2021/12/19 11:11:48;;;;;;;7.60;3.93;;;;;;;;;;5073359;28;20676;-91
2021/12/19 11:14:18;;;;;;;9.70;4.57;;;;;;;;;;5074933;28;20209;-91
2021/12/19 11:16:46;;;;;;;7.30;4.23;;;;;;;;;;5073745;28;20213;-91
2021/12/19 11:19:13;;;;;;;6.03;3.93;;;;;;;;;;5074270;28;20213;-91
2021/12/19 11:21:42;;;;;;;7.30;4.37;;;;;;;;;;5073553;28;20221;-91
2021/12/19 11:24:11;;;;;;;6.30;3.63;;;;;;;;;;5068982;28;20265;-92
2021/12/19 11:26:40;;;;;;;7.03;4.23;;;;;;;;;;5073371;28;20212;-92
2021/12/19 11:29:12;;;;;;;6.97;4.03;;;;;;;;;;5073401;28;20697;-92
2021/12/19 11:31:41;;;;;;;6.17;3.67;;;;;;;;;;5074091;28;20576;-91
2021/12/19 11:34:25;;;;;;;6.63;4.20;;;;;;;;;;5068407;28;20244;-91
2021/12/19 11:37:01;;;;;;;9.80;5.40;;;;;;;;;;5076050;28;20213;-91
2021/12/19 11:39:29;;;;;;;6.70;3.70;;;;;;;;;;5072685;28;20200;-91
2021/12/19 11:42:05;;;;;;;10.87;4.77;;;;;;;;;;5072309;28;20229;-91
2021/12/19 11:44:35;;;;;;;9.07;4.83;;;;;;;;;;5068901;28;20661;-91
2021/12/19 11:47:10;;;;;;;6.73;4.33;;;;;;;;;;5076164;28;20208;-91
2021/12/19 11:49:38;;;;;;;8.73;5.27;;;;;;;;;;5076731;28;20240;-91
2021/12/19 11:52:25;;;;;;;10.83;5.53;;;;;;;;;;5076558;28;20252;-90
2021/12/19 11:55:07;;;;;;;14.70;6.40;;;;;;;;;;5076144;28;20243;-91
2021/12/19 11:57:34;;;;;;;16.10;8.40;;;;;;;;;;5075482;28;20212;-90
2021/12/19 12:00:25;;;;;;;8.00;4.73;;;;;;;;;;5065296;28;20666;-90
2021/12/19 12:03:15;;;;;;;7.47;4.43;;;;;;;;;;5056245;28;20575;-90
2021/12/19 12:05:43;;;;;;;6.60;3.97;;;;;;;;;;5061460;28;20221;-91
2021/12/19 12:08:14;;;;;;;7.53;4.43;;;;;;;;;;5060492;28;20256;-91
2021/12/19 12:11:01;;;;;;;6.20;3.90;;;;;;;;;;5072924;28;20221;-92
2021/12/19 12:13:29;;;;;;;8.07;4.47;;;;;;;;;;5069814;28;20201;-91
2021/12/19 12:16:04;;;;;;;8.30;4.40;;;;;;;;;;5075309;28;20236;-92
2021/12/19 12:18:41;;;;;;;7.57;4.57;;;;;;;;;;5074327;28;20263;-93
2021/12/19 12:21:26;;;;;;;10.40;5.53;;;;;;;;;;5070244;28;20275;-93
2021/12/19 12:23:55;;;;;;;11.00;5.30;;;;;;;;;;5058059;28;20651;-92
2021/12/19 12:26:24;;;;;;;9.43;5.10;;;;;;;;;;5067237;28;20213;-93
2021/12/19 12:28:52;;;;;;;9.60;4.97;;;;;;;;;;5074579;28;20258;-93
2021/12/19 12:31:21;;;;;;;10.10;5.63;;;;;;;;;;5074579;28;20275;-93
2021/12/19 12:33:48;;;;;;;11.27;5.80;;;;;;;;;;5069519;28;20205;-93
2021/12/19 12:36:16;;;;;;;9.60;5.53;;;;;;;;;;5074010;28;20205;-93
2021/12/19 12:38:46;;;;;;;9.97;5.83;;;;;;;;;;5074374;28;20744;-93
2021/12/19 12:41:27;;;;;;;12.90;7.27;;;;;;;;;;5074480;28;20279;-93
2021/12/19 12:43:54;;;;;;;11.03;6.83;;;;;;;;;;5063630;28;20206;-93
2021/12/19 12:46:25;;;;;;;12.27;7.27;;;;;;;;;;5069262;28;20615;-93
2021/12/19 12:48:56;;;;;;;11.47;6.43;;;;;;;;;;5074754;28;20205;-93
2021/12/19 12:51:28;;;;;;;12.67;6.93;;;;;;;;;;5071189;28;20229;-94
2021/12/19 12:53:57;;;;;;;13.03;5.90;;;;;;;;;;5069739;28;20221;-93
2021/12/19 12:56:29;;;;;;;9.90;5.87;;;;;;;;;;5073575;28;20212;-93
2021/12/19 12:58:57;;;;;;;13.43;7.33;;;;;;;;;;5074652;28;20217;-93
2021/12/19 13:01:27;;;;;;;15.53;8.23;;;;;;;;;;5069898;28;20232;-93
2021/12/19 13:03:56;;;;;;;13.63;6.90;;;;;;;;;;5068032;28;20209;-93
2021/12/19 13:06:36;;;;;;;15.07;8.17;;;;;;;;;;5074068;28;20205;-94
2021/12/19 13:09:11;;;;;;;16.47;8.17;;;;;;;;;;5053996;28;20205;-92
2021/12/19 13:11:38;;;;;;;16.53;7.97;;;;;;;;;;5063461;28;20274;-93
2021/12/19 13:14:17;;;;;;;13.90;7.07;;;;;;;;;;5073839;28;20255;-92
2021/12/19 13:16:47;;;;;;;13.57;6.37;;;;;;;;;;5074165;28;20205;-93
2021/12/19 13:19:29;;;;;;;16.23;7.20;;;;;;;;;;5069454;28;20228;-93
2021/12/19 13:21:56;;;;;;;13.20;6.40;;;;;;;;;;5072754;28;20278;-93
2021/12/19 13:24:24;;;;;;;15.00;8.00;;;;;;;;;;5074137;28;20213;-93
2021/12/19 13:27:03;;;;;;;13.17;7.07;;;;;;;;;;5070032;28;20209;-93
2021/12/19 13:29:31;;;;;;;12.70;6.50;;;;;;;;;;5068131;28;20662;-90
2021/12/19 13:32:13;;;;;;;12.43;7.03;;;;;;;;;;5073516;28;20217;-90
2021/12/19 13:34:42;;;;;;;12.07;6.40;;;;;;;;;;5070556;28;20625;-91
2021/12/19 13:37:09;;;;;;;11.73;6.07;;;;;;;;;;5072979;28;20251;-91
2021/12/19 13:39:36;;;;;;;11.30;6.13;;;;;;;;;;5073791;28;20205;-90
2021/12/19 13:42:07;;;;;;;10.57;6.30;;;;;;;;;;5073080;28;20217;-90
2021/12/19 13:44:34;;;;;;;9.30;5.60;;;;;;;;;;5066622;28;20266;-90
2021/12/19 13:47:10;;;;;;;10.40;5.57;;;;;;;;;;5071553;28;20213;-91
2021/12/19 13:49:38;;;;;;;9.83;5.70;;;;;;;;;;5072917;28;20722;-90
2021/12/19 13:52:08;;;;;;;11.57;6.47;;;;;;;;;;5073187;28;20237;-90
2021/12/19 13:54:40;;;;;;;11.57;5.60;;;;;;;;;;5067584;28;20237;-90
2021/12/19 13:57:21;;;;;;;9.83;5.63;;;;;;;;;;5072547;28;20213;-93
2021/12/19 13:59:49;;;;;;;13.63;6.57;;;;;;;;;;5072492;28;20208;-93
2021/12/19 14:02:16;;;;;;;8.47;5.37;;;;;;;;;;5072328;28;20226;-92
2021/12/19 14:04:44;;;;;;;9.53;6.00;;;;;;;;;;5068517;28;20232;-93
2021/12/19 14:07:14;;;;;;;11.80;5.83;;;;;;;;;;5072282;28;20201;-93
2021/12/19 14:09:42;;;;;;;13.57;7.40;;;;;;;;;;5072836;28;20201;-93
2021/12/19 14:12:15;;;;;;;11.27;6.57;;;;;;;;;;5069425;28;20266;-93
2021/12/19 14:14:42;;;;;;;15.53;7.97;;;;;;;;;;5064375;28;20256;-93
2021/12/19 14:17:10;;;;;;;12.87;7.23;;;;;;;;;;5072665;28;20206;-93
2021/12/19 14:19:38;;;;;;;11.57;6.30;;;;;;;;;;5066682;28;20210;-93
2021/12/19 14:22:15;;;;;;;14.03;6.60;;;;;;;;;;5060979;28;20237;-93
2021/12/19 14:24:43;;;;;;;13.87;6.70;;;;;;;;;;5073638;28;20204;-93
2021/12/19 14:27:15;;;;;;;13.70;6.67;;;;;;;;;;5077809;28;20205;-93
2021/12/19 14:29:44;;;;;;;11.53;6.67;;;;;;;;;;5082955;28;20210;-92
2021/12/19 14:32:12;;;;;;;14.30;7.10;;;;;;;;;;5091649;28;20228;-92
2021/12/19 14:34:41;;;;;;;13.33;7.20;;;;;;;;;;5092151;28;20205;-92
2021/12/19 14:37:26;;;;;;;17.17;7.70;;;;;;;;;;5084169;28;20231;-92
2021/12/19 14:40:14;;;;;;;17.27;7.57;;;;;;;;;;5065456;28;20247;-92
2021/12/19 14:42:43;;;;;;;13.20;7.00;;;;;;;;;;5068196;28;20225;-93
2021/12/19 14:45:11;;;;;;;13.10;7.47;;;;;;;;;;5067703;28;20213;-92
2021/12/19 14:47:40;;;;;;;14.33;7.30;;;;;;;;;;5063216;28;20256;-93
2021/12/19 14:50:15;;;;;;;12.63;7.40;;;;;;;;;;5071551;28;20209;-93
2021/12/19 14:52:56;;;;;;;13.87;6.57;;;;;;;;;;5052011;28;20744;-93
2021/12/19 14:55:26;;;;;;;12.33;6.00;;;;;;;;;;5057974;28;20662;-93
2021/12/19 14:57:53;;;;;;;15.23;8.00;;;;;;;;;;5069192;28;20190;-93
2021/12/19 15:00:21;;;;;;;10.67;6.87;;;;;;;;;;5072556;28;20201;-93
2021/12/19 15:02:48;;;;;;;12.97;6.90;;;;;;;;;;5062230;28;20238;-92
2021/12/19 15:05:15;;;;;;;13.10;6.40;;;;;;;;;;5069395;28;20654;-92
2021/12/19 15:07:46;;;;;;;12.77;7.13;;;;;;;;;;5072022;28;20205;-93
2021/12/19 15:10:14;;;;;;;15.23;6.87;;;;;;;;;;5072610;28;20215;-93
2021/12/19 15:12:42;;;;;;;12.87;6.80;;;;;;;;;;5059290;28;20679;-93
2021/12/19 15:15:10;;;;;;;12.30;6.63;;;;;;;;;;5064817;28;20255;-92
2021/12/19 15:17:37;;;;;;;11.57;6.20;;;;;;;;;;5071511;28;20201;-93
2021/12/19 15:20:05;;;;;;;10.43;5.93;;;;;;;;;;5072873;28;20205;-93
2021/12/19 15:22:33;;;;;;;13.40;6.80;;;;;;;;;;5061118;28;20222;-92
2021/12/19 15:25:14;;;;;;;14.03;7.70;;;;;;;;;;5074101;28;20212;-93
2021/12/19 15:27:43;;;;;;;14.73;7.23;;;;;;;;;;5075836;28;20201;-93
2021/12/19 15:30:11;;;;;;;14.00;6.83;;;;;;;;;;5065894;28;20701;-93
2021/12/19 15:32:38;;;;;;;13.00;7.40;;;;;;;;;;5075414;28;20270;-94
2021/12/19 15:35:06;;;;;;;13.33;6.90;;;;;;;;;;5075614;28;20260;-93
2021/12/19 15:37:33;;;;;;;11.47;6.33;;;;;;;;;;5073236;28;20224;-92